Frisenvaenge

DK-0058 · 南丹麦大区, 丹麦

使用的METAR站距离机场40 km。
罗盘
风向 的 风向 150° Frisenvaenge 9/27
风: 9 kt, 3 beaufort

5 kt

8 kt
改变
0 ft 1.000 2.000 3.000 4.000 5.000
Cloud Cloud Cloud Cloud Cloud Cloud
BKN 1.000
METAR EKSB 290752Z 15009KT 7000 -RA BKN010 14/13 Q1008

METAR Frisenvaenge - DK-0058

Frisenvaenge是,丹麦中的小机场。 该机场位于纬度55,11111和经度10,36222。 该机场有一条跑道: 9/27. 这个机场没有ICAO代码,我们使用DK-0058作为参考。 机场在Kobenhavn FIR中。

该航空气象观测是针对Sønderborg Airport在2024年5月29日 09:52, 当地时间进行的。

机场观察

风向为150°,速度为9 kt。

可见度为7 km。

有碎云在1.000 ft的高度。 破损或更高的上限为1.000 ft。

当前天气为光 雨。 温度和风寒是14 °C。 露点为13 °C,相对湿度为94%。 海平面上的气压为1008 hPa (QNH)。

白天

今天,太阳从04:48升起,在21:43降落。 这适用于Frisenvaenge,世界夏令时可能有所不同。 当地时间与世界标准时间之间的时差为+2 小时。 夏令时目前正在进行中。

公司介绍

我们没有关于这个机场的公司信息。

体会

到Vliegles.nl去找飞行课程,跳伞和其他飞行体验。 浏览页面,了解Frisenvaenge附近所有可用的活动。 你也可以使用搜索功能来寻找你所在地附近的特定飞行课程、跳伞或其他飞行体验。

跑道

Id 标题 侧风 逆风 侧风 %
9/27 090°-270° 8 kt 5 kt 87 %

逆风成分最大的方向会被突出显示,并用于横风计算。 这并不一定意味着这个方向在使用。

乌云

1.000 ft BKN 碎云

温度 & 天气

天气 光 雨
温度 14 °C
露点 13 °C
相对湿度 94%
Kp-index 1 (0-9)

白天

日出
04:51
中午
13:18
日落
21:44 (11:26)

小工具

你想在你的网站上有一个关于Frisenvaenge的当前航空天气(METAR)的小部件吗?

显示HTML代码
报告变更